createdAt,value
2023-01-12T00:00:31.645Z,1034.46
2023-01-12T00:01:32.256Z,1034.40
2023-01-12T00:02:33.751Z,1034.40
2023-01-12T00:03:34.369Z,1034.34
2023-01-12T00:04:35.029Z,1034.45
2023-01-12T00:05:35.620Z,1034.33
2023-01-12T00:06:36.376Z,1034.34
2023-01-12T00:07:36.971Z,1034.37
2023-01-12T00:08:37.571Z,1034.41
2023-01-12T00:09:38.243Z,1034.43
2023-01-12T00:10:38.848Z,1034.33
2023-01-12T00:11:39.442Z,1034.39
2023-01-12T00:12:40.897Z,1034.42
2023-01-12T00:13:41.585Z,1034.33
2023-01-12T00:14:42.214Z,1034.41
2023-01-12T00:15:42.827Z,1034.38
2023-01-12T00:16:43.523Z,1034.34
2023-01-12T00:17:44.973Z,1034.38
2023-01-12T00:18:45.572Z,1034.41
2023-01-12T00:19:46.168Z,1034.38
2023-01-12T00:20:46.769Z,1034.37
2023-01-12T00:21:47.432Z,1034.42
2023-01-12T00:22:48.034Z,1034.45
2023-01-12T00:23:48.630Z,1034.34
2023-01-12T00:24:49.258Z,1034.36
2023-01-12T00:25:49.928Z,1034.29
2023-01-12T00:26:50.530Z,1034.32
2023-01-12T00:27:51.194Z,1034.30
2023-01-12T00:28:51.799Z,1034.39
2023-01-12T00:29:52.406Z,1034.30
2023-01-12T00:30:53.090Z,1034.28
2023-01-12T00:31:53.818Z,1034.25
2023-01-12T00:32:54.544Z,1034.35
2023-01-12T00:33:55.125Z,1034.21
2023-01-12T00:34:55.728Z,1034.26
2023-01-12T00:35:56.372Z,1034.15
2023-01-12T00:36:56.979Z,1034.27
2023-01-12T00:37:57.565Z,1034.28
2023-01-12T00:38:58.171Z,1034.19
2023-01-12T00:40:02.445Z,1034.19
2023-01-12T00:41:00.357Z,1034.26
2023-01-12T00:42:00.955Z,1034.29
2023-01-12T00:43:01.550Z,1034.32
2023-01-12T00:44:02.147Z,1034.28
2023-01-12T00:45:02.766Z,1034.26
2023-01-12T00:46:03.413Z,1034.22
2023-01-12T00:47:04.007Z,1034.18
2023-01-12T00:48:04.608Z,1034.22
2023-01-12T00:49:05.259Z,1034.17
2023-01-12T00:50:05.851Z,1034.17
2023-01-12T00:51:06.450Z,1034.16
2023-01-12T00:52:07.647Z,1034.12
2023-01-12T00:53:08.741Z,1034.20
2023-01-12T00:54:09.333Z,1034.10
2023-01-12T00:55:09.941Z,1034.17
2023-01-12T00:56:10.545Z,1034.15
2023-01-12T00:57:11.139Z,1034.13
2023-01-12T00:58:11.733Z,1034.11
2023-01-12T00:59:12.337Z,1034.10
2023-01-12T01:00:12.936Z,1034.10
2023-01-12T01:01:13.603Z,1034.15
2023-01-12T01:02:14.297Z,1034.11
2023-01-12T01:03:14.938Z,1034.10
2023-01-12T01:04:15.542Z,1034.14
2023-01-12T01:05:16.141Z,1034.08
2023-01-12T01:06:17.575Z,1034.06
2023-01-12T01:07:18.180Z,1034.05
2023-01-12T01:08:18.785Z,1034.03
2023-01-12T01:09:19.453Z,1034.10
2023-01-12T01:10:20.059Z,1034.06
2023-01-12T01:11:20.646Z,1034.05
2023-01-12T01:12:21.249Z,1034.13
2023-01-12T01:13:21.849Z,1034.05
2023-01-12T01:14:22.444Z,1034.03
2023-01-12T01:15:23.047Z,1034.04
2023-01-12T01:16:23.642Z,1034.01
2023-01-12T01:17:24.245Z,1033.97
2023-01-12T01:18:24.839Z,1033.87
2023-01-12T01:19:25.441Z,1033.98
2023-01-12T01:20:26.037Z,1033.92
2023-01-12T01:21:26.636Z,1033.90
2023-01-12T01:22:27.232Z,1033.98
2023-01-12T01:23:27.834Z,1033.95
2023-01-12T01:24:28.432Z,1033.86
2023-01-12T01:25:29.032Z,1033.86
2023-01-12T01:26:29.633Z,1033.88
2023-01-12T01:27:30.224Z,1033.92
2023-01-12T01:28:30.834Z,1033.92
2023-01-12T01:29:31.434Z,1033.90
2023-01-12T01:30:32.020Z,1033.87
2023-01-12T01:31:32.650Z,1033.91
2023-01-12T01:32:33.249Z,1033.91
2023-01-12T01:33:33.858Z,1033.94
2023-01-12T01:34:34.586Z,1033.93
2023-01-12T01:35:35.989Z,1033.93
2023-01-12T01:36:36.581Z,1033.90
2023-01-12T01:37:37.203Z,1033.90
2023-01-12T01:38:37.841Z,1033.84
2023-01-12T01:39:38.437Z,1033.92
2023-01-12T01:40:39.031Z,1033.88
2023-01-12T01:41:42.804Z,1033.90
2023-01-12T01:42:42.076Z,1033.96
2023-01-12T01:43:42.679Z,1034.01
2023-01-12T01:44:43.273Z,1033.91
2023-01-12T01:45:43.879Z,1033.94
2023-01-12T01:46:44.503Z,1033.99
2023-01-12T01:47:45.121Z,1033.97
2023-01-12T01:48:45.720Z,1033.91
2023-01-12T01:49:46.334Z,1033.95
2023-01-12T01:50:46.925Z,1033.89
2023-01-12T01:51:48.331Z,1033.94
2023-01-12T01:52:48.941Z,1033.91
2023-01-12T01:53:49.528Z,1033.94
2023-01-12T01:54:50.949Z,1033.97
2023-01-12T01:55:51.586Z,1033.88
2023-01-12T01:56:52.175Z,1033.84
2023-01-12T01:57:52.789Z,1033.86
2023-01-12T01:58:53.372Z,1033.88
2023-01-12T01:59:54.893Z,1033.90
2023-01-12T02:00:55.594Z,1033.92
2023-01-12T02:01:56.221Z,1033.91
2023-01-12T02:02:56.852Z,1033.89
2023-01-12T02:03:57.453Z,1033.83
2023-01-12T02:04:58.044Z,1033.88
2023-01-12T02:05:58.649Z,1033.77
2023-01-12T02:06:59.241Z,1033.81
2023-01-12T02:07:59.874Z,1033.81
2023-01-12T02:09:00.473Z,1033.74
2023-01-12T02:10:01.131Z,1033.76
2023-01-12T02:11:01.712Z,1033.78
2023-01-12T02:12:02.314Z,1033.72
2023-01-12T02:13:02.905Z,1033.80
2023-01-12T02:14:03.510Z,1033.80
2023-01-12T02:15:04.105Z,1033.81
2023-01-12T02:16:04.764Z,1033.78
2023-01-12T02:17:05.377Z,1033.74
2023-01-12T02:18:05.979Z,1033.73
2023-01-12T02:19:06.581Z,1033.76
2023-01-12T02:20:07.175Z,1033.73
2023-01-12T02:21:07.768Z,1033.72
2023-01-12T02:22:08.390Z,1033.72
2023-01-12T02:23:08.976Z,1033.76
2023-01-12T02:24:09.576Z,1033.70
2023-01-12T02:25:10.174Z,1033.69
2023-01-12T02:26:10.835Z,1033.75
2023-01-12T02:27:11.432Z,1033.76
2023-01-12T02:28:12.033Z,1033.73
2023-01-12T02:29:12.630Z,1033.78
2023-01-12T02:30:13.237Z,1033.75
2023-01-12T02:31:13.906Z,1033.70
2023-01-12T02:32:14.504Z,1033.82
2023-01-12T02:33:15.098Z,1033.79
2023-01-12T02:34:15.707Z,1033.84
2023-01-12T02:35:16.376Z,1033.83
2023-01-12T02:36:17.035Z,1033.90
2023-01-12T02:37:17.926Z,1033.93
2023-01-12T02:38:18.531Z,1033.92
2023-01-12T02:39:19.179Z,1033.89
2023-01-12T02:40:19.782Z,1033.83
2023-01-12T02:41:20.369Z,1033.88
2023-01-12T02:42:20.972Z,1033.82
2023-01-12T02:43:21.567Z,1033.87
2023-01-12T02:44:22.171Z,1033.86
2023-01-12T02:45:22.766Z,1033.80
2023-01-12T02:46:23.555Z,1033.84
2023-01-12T02:47:24.183Z,1033.77
2023-01-12T02:49:08.267Z,1033.89
2023-01-12T02:50:08.847Z,1033.88
2023-01-12T02:51:09.466Z,1033.87
2023-01-12T02:52:10.904Z,1033.90
2023-01-12T02:53:11.550Z,1033.92
2023-01-12T02:54:12.156Z,1033.86
2023-01-12T02:55:12.745Z,1033.95
2023-01-12T02:56:13.336Z,1033.90
2023-01-12T02:57:13.940Z,1033.95
2023-01-12T02:58:14.538Z,1033.86
2023-01-12T02:59:15.140Z,1033.89
2023-01-12T03:00:16.604Z,1033.89
2023-01-12T03:01:17.296Z,1033.90
2023-01-12T03:02:17.925Z,1033.95
2023-01-12T03:03:18.549Z,1033.85
2023-01-12T03:04:19.187Z,1033.95
2023-01-12T03:05:19.797Z,1033.88
2023-01-12T03:06:20.388Z,1033.91
2023-01-12T03:07:21.052Z,1033.91
2023-01-12T03:08:21.645Z,1033.88
2023-01-12T03:09:22.253Z,1033.88
2023-01-12T03:10:22.842Z,1033.93
2023-01-12T03:11:23.444Z,1033.93
2023-01-12T03:12:24.041Z,1033.93
2023-01-12T03:13:24.639Z,1033.90
2023-01-12T03:14:25.235Z,1033.87
2023-01-12T03:15:25.839Z,1033.82
2023-01-12T03:16:26.458Z,1033.85
2023-01-12T03:17:27.057Z,1033.93
2023-01-12T03:18:27.711Z,1033.95
2023-01-12T03:19:28.313Z,1033.83
2023-01-12T03:20:28.993Z,1033.80
2023-01-12T03:21:29.580Z,1033.83
2023-01-12T03:22:30.179Z,1033.78
2023-01-12T03:23:30.778Z,1033.80
2023-01-12T03:24:31.373Z,1033.82
2023-01-12T03:25:31.976Z,1033.76
2023-01-12T03:26:32.640Z,1033.69
2023-01-12T03:27:33.247Z,1033.66
2023-01-12T03:28:33.839Z,1033.65
2023-01-12T03:29:34.446Z,1033.62
2023-01-12T03:30:35.894Z,1033.65
2023-01-12T03:31:36.522Z,1033.61
2023-01-12T03:32:37.115Z,1033.55
2023-01-12T03:33:37.713Z,1033.53
2023-01-12T03:34:38.308Z,1033.55
2023-01-12T03:35:38.914Z,1033.51
2023-01-12T03:36:39.504Z,1033.53
2023-01-12T03:37:40.107Z,1033.49
2023-01-12T03:38:40.704Z,1033.47
2023-01-12T03:39:41.310Z,1033.46
2023-01-12T03:40:41.906Z,1033.47
2023-01-12T03:41:42.505Z,1033.36
2023-01-12T03:42:43.105Z,1033.30
2023-01-12T03:43:43.701Z,1033.29
2023-01-12T03:44:44.298Z,1033.35
2023-01-12T03:45:44.952Z,1033.35
2023-01-12T03:46:45.579Z,1033.34
2023-01-12T03:47:46.173Z,1033.37
2023-01-12T03:48:46.767Z,1033.42
2023-01-12T03:49:47.392Z,1033.38
2023-01-12T03:50:47.967Z,1033.42
2023-01-12T03:51:48.625Z,1033.39
2023-01-12T03:52:49.289Z,1033.47
2023-01-12T03:53:49.909Z,1033.39
2023-01-12T03:54:50.489Z,1033.28
2023-01-12T03:55:51.329Z,1033.31
2023-01-12T03:56:51.914Z,1033.29
2023-01-12T03:57:52.562Z,1033.26
2023-01-12T03:58:53.155Z,1033.37
2023-01-12T03:59:53.755Z,1033.37
2023-01-12T04:00:54.419Z,1033.37
2023-01-12T04:01:55.201Z,1033.36
2023-01-12T04:02:55.861Z,1033.30
2023-01-12T04:03:56.475Z,1033.35
2023-01-12T04:04:57.121Z,1033.32
2023-01-12T04:05:57.736Z,1033.34
2023-01-12T04:06:59.843Z,1033.35
2023-01-12T04:07:59.925Z,1033.29
2023-01-12T04:09:00.633Z,1033.27
2023-01-12T04:10:01.236Z,1033.26
2023-01-12T04:11:01.903Z,1033.27
2023-01-12T04:12:02.525Z,1033.27
2023-01-12T04:13:03.108Z,1033.25
2023-01-12T04:14:03.713Z,1033.21
2023-01-12T04:15:04.312Z,1033.18
2023-01-12T04:16:05.061Z,1033.26
2023-01-12T04:17:05.663Z,1033.17
2023-01-12T04:18:06.265Z,1033.13
2023-01-12T04:19:06.849Z,1033.19
2023-01-12T04:20:07.451Z,1033.19
2023-01-12T04:21:08.046Z,1033.15
2023-01-12T04:22:09.452Z,1033.13
2023-01-12T04:23:10.046Z,1033.17
2023-01-12T04:24:10.654Z,1033.12
2023-01-12T04:25:11.237Z,1033.02
2023-01-12T04:26:11.840Z,1033.00
2023-01-12T04:27:12.436Z,1033.00
2023-01-12T04:28:13.037Z,1033.05
2023-01-12T04:29:13.633Z,1032.99
2023-01-12T04:30:14.234Z,1033.04
2023-01-12T04:31:14.890Z,1032.93
2023-01-12T04:32:15.494Z,1032.97
2023-01-12T04:33:16.088Z,1032.91
2023-01-12T04:34:16.693Z,1032.88
2023-01-12T04:35:17.347Z,1032.88
2023-01-12T04:36:17.982Z,1032.87
2023-01-12T04:37:18.576Z,1032.80
2023-01-12T04:38:19.180Z,1032.80
2023-01-12T04:39:19.772Z,1032.82
2023-01-12T04:40:20.373Z,1032.75
2023-01-12T04:41:20.968Z,1032.73
2023-01-12T04:42:21.572Z,1032.79
2023-01-12T04:43:22.166Z,1032.84
2023-01-12T04:44:22.769Z,1032.79
2023-01-12T04:45:23.378Z,1032.76
2023-01-12T04:46:23.968Z,1032.75
2023-01-12T04:47:24.564Z,1032.73
2023-01-12T04:48:25.334Z,1032.68
2023-01-12T04:49:25.828Z,1032.72
2023-01-12T04:50:26.432Z,1032.79
2023-01-12T04:51:27.041Z,1032.73
2023-01-12T04:52:27.631Z,1032.78
2023-01-12T04:53:28.287Z,1032.72
2023-01-12T04:54:28.892Z,1032.81
2023-01-12T04:55:29.489Z,1032.83
2023-01-12T04:56:30.152Z,1032.83
2023-01-12T04:57:30.750Z,1032.87
2023-01-12T04:58:31.352Z,1032.88
2023-01-12T04:59:32.022Z,1032.79
2023-01-12T05:00:32.672Z,1032.87
2023-01-12T05:01:34.212Z,1032.90
2023-01-12T05:02:34.829Z,1032.87
2023-01-12T05:03:35.425Z,1032.98
2023-01-12T05:04:36.026Z,1032.94
2023-01-12T05:05:36.620Z,1032.98
2023-01-12T05:06:37.225Z,1032.89
2023-01-12T05:07:37.820Z,1032.90
2023-01-12T05:08:38.417Z,1032.93
2023-01-12T05:09:39.012Z,1032.95
2023-01-12T05:10:39.671Z,1032.98
2023-01-12T05:11:40.310Z,1032.98
2023-01-12T05:12:40.976Z,1032.92
2023-01-12T05:13:41.570Z,1032.91
2023-01-12T05:14:42.172Z,1032.94
2023-01-12T05:15:42.784Z,1032.93
2023-01-12T05:16:43.403Z,1033.04
2023-01-12T05:17:44.034Z,1033.01
2023-01-12T05:18:44.636Z,1033.06
2023-01-12T05:19:45.231Z,1033.11
2023-01-12T05:20:45.840Z,1033.06
2023-01-12T05:21:46.427Z,1033.08
2023-01-12T05:22:47.029Z,1033.04
2023-01-12T05:23:47.627Z,1033.06
2023-01-12T05:24:48.237Z,1033.03
2023-01-12T05:25:48.888Z,1033.07
2023-01-12T05:26:49.488Z,1033.10
2023-01-12T05:27:50.080Z,1033.04
2023-01-12T05:28:50.687Z,1032.99
2023-01-12T05:29:51.272Z,1032.97
2023-01-12T05:30:51.883Z,1033.08
2023-01-12T05:31:52.470Z,1033.03
2023-01-12T05:32:53.072Z,1032.95
2023-01-12T05:33:53.665Z,1033.08
2023-01-12T05:34:54.268Z,1033.05
2023-01-12T05:35:54.935Z,1033.08
2023-01-12T05:36:55.552Z,1033.08
2023-01-12T05:37:56.148Z,1033.05
2023-01-12T05:38:56.751Z,1033.09
2023-01-12T05:39:57.342Z,1033.04
2023-01-12T05:40:57.946Z,1033.04
2023-01-12T05:41:58.540Z,1033.00
2023-01-12T05:42:59.143Z,1033.07
2023-01-12T05:43:59.736Z,1033.03
2023-01-12T05:45:00.339Z,1032.97
2023-01-12T05:46:00.957Z,1032.91
2023-01-12T05:47:01.583Z,1032.96
2023-01-12T05:48:02.178Z,1032.97
2023-01-12T05:49:02.792Z,1032.96
2023-01-12T05:50:03.452Z,1032.88
2023-01-12T05:51:04.055Z,1032.95
2023-01-12T05:52:04.713Z,1032.95
2023-01-12T05:53:05.322Z,1032.98
2023-01-12T05:54:05.909Z,1032.92
2023-01-12T05:55:06.510Z,1032.94
2023-01-12T05:56:07.114Z,1032.94
2023-01-12T05:57:07.705Z,1032.93
2023-01-12T05:58:08.303Z,1032.93
2023-01-12T05:59:08.905Z,1032.98
2023-01-12T06:00:09.504Z,1033.01
2023-01-12T06:01:10.114Z,1032.93
2023-01-12T06:02:11.663Z,1032.91
2023-01-12T06:03:12.270Z,1032.79
2023-01-12T06:04:12.930Z,1032.85
2023-01-12T06:05:13.539Z,1032.76
2023-01-12T06:06:14.136Z,1032.79
2023-01-12T06:07:14.935Z,1032.84
2023-01-12T06:08:15.525Z,1032.87
2023-01-12T06:09:16.126Z,1032.90
2023-01-12T06:10:16.718Z,1032.91
2023-01-12T06:11:17.321Z,1032.88
2023-01-12T06:12:17.963Z,1032.90
2023-01-12T06:13:18.613Z,1032.90
2023-01-12T06:14:19.206Z,1032.95
2023-01-12T06:15:19.804Z,1032.88
2023-01-12T06:16:20.432Z,1032.87
2023-01-12T06:17:21.052Z,1032.83
2023-01-12T06:18:21.641Z,1032.86
2023-01-12T06:19:22.245Z,1032.81
2023-01-12T06:20:22.859Z,1032.76
2023-01-12T06:21:23.445Z,1032.80
2023-01-12T06:22:24.039Z,1032.80
2023-01-12T06:23:35.399Z,1032.79
2023-01-12T06:24:27.028Z,1032.73
2023-01-12T06:25:27.630Z,1032.73
2023-01-12T06:26:28.231Z,1032.73
2023-01-12T06:27:28.828Z,1032.75
2023-01-12T06:28:29.443Z,1032.75
2023-01-12T06:29:30.080Z,1032.77
2023-01-12T06:30:31.524Z,1032.74
2023-01-12T06:31:32.962Z,1032.75
2023-01-12T06:32:33.787Z,1032.70
2023-01-12T06:33:34.516Z,1032.77
2023-01-12T06:34:35.286Z,1032.85
2023-01-12T06:35:36.691Z,1032.71
2023-01-12T06:36:37.289Z,1032.76
2023-01-12T06:37:37.998Z,1032.80
2023-01-12T06:38:38.597Z,1032.74
2023-01-12T06:39:39.191Z,1032.80
2023-01-12T06:40:39.787Z,1032.91
2023-01-12T06:41:40.409Z,1032.79
2023-01-12T06:42:40.994Z,1032.83
2023-01-12T06:43:41.594Z,1032.72
2023-01-12T06:44:42.188Z,1032.76
2023-01-12T06:45:42.789Z,1032.76
2023-01-12T06:46:43.380Z,1032.71
2023-01-12T06:47:43.987Z,1032.77
2023-01-12T06:48:44.579Z,1032.76
2023-01-12T06:49:45.181Z,1032.74
2023-01-12T06:50:46.577Z,1032.77
2023-01-12T06:51:47.178Z,1032.81
2023-01-12T06:52:47.778Z,1032.77
2023-01-12T06:53:48.444Z,1032.71
2023-01-12T06:54:49.035Z,1032.74
2023-01-12T06:55:49.636Z,1032.68
2023-01-12T06:56:50.231Z,1032.71
2023-01-12T06:57:50.835Z,1032.74
2023-01-12T06:58:51.427Z,1032.82
2023-01-12T06:59:52.030Z,1032.89
2023-01-12T07:00:52.670Z,1032.80
2023-01-12T07:01:53.298Z,1032.94
2023-01-12T07:02:53.884Z,1033.01
2023-01-12T07:03:54.499Z,1032.98
2023-01-12T07:04:55.077Z,1032.92
2023-01-12T07:05:55.677Z,1032.93
2023-01-12T07:06:56.280Z,1032.87
2023-01-12T07:07:56.892Z,1032.89
2023-01-12T07:08:57.485Z,1032.91
2023-01-12T07:09:58.076Z,1032.96
2023-01-12T07:10:58.687Z,1032.97
2023-01-12T07:11:59.344Z,1033.00
2023-01-12T07:13:00.745Z,1032.96
2023-01-12T07:14:01.469Z,1032.96
2023-01-12T07:15:02.031Z,1033.09
2023-01-12T07:16:02.697Z,1032.96
2023-01-12T07:17:03.319Z,1032.99
2023-01-12T07:18:03.907Z,1032.91
2023-01-12T07:19:04.508Z,1032.82
2023-01-12T07:20:05.102Z,1032.86
2023-01-12T07:21:05.701Z,1032.88
2023-01-12T07:22:06.371Z,1032.91
2023-01-12T07:23:06.966Z,1032.98
2023-01-12T07:24:07.567Z,1032.98
2023-01-12T07:25:08.163Z,1033.02
2023-01-12T07:26:08.757Z,1033.10
2023-01-12T07:27:09.365Z,1033.09
2023-01-12T07:28:10.752Z,1033.07
2023-01-12T07:29:11.356Z,1033.19
2023-01-12T07:30:11.948Z,1033.21
2023-01-12T07:31:12.739Z,1033.33
2023-01-12T07:32:13.341Z,1033.34
2023-01-12T07:33:15.737Z,1033.25
2023-01-12T07:34:16.334Z,1033.32
2023-01-12T07:35:16.993Z,1033.27
2023-01-12T07:36:17.580Z,1033.32
2023-01-12T07:37:18.188Z,1033.25
2023-01-12T07:38:18.774Z,1033.14
2023-01-12T07:39:20.225Z,1033.15
2023-01-12T07:40:21.671Z,1033.22
2023-01-12T07:41:22.280Z,1033.23
2023-01-12T07:42:22.872Z,1033.23
2023-01-12T07:43:23.476Z,1033.20
2023-01-12T07:44:24.192Z,1033.19
2023-01-12T07:45:24.860Z,1033.23
2023-01-12T07:46:25.552Z,1033.19
2023-01-12T07:47:26.160Z,1033.29
2023-01-12T07:48:26.767Z,1033.24
2023-01-12T07:49:27.420Z,1033.29
2023-01-12T07:50:28.015Z,1033.35
2023-01-12T07:51:28.664Z,1033.35
2023-01-12T07:52:29.259Z,1033.29
2023-01-12T07:53:29.913Z,1033.32
2023-01-12T07:54:30.511Z,1033.41
2023-01-12T07:55:31.124Z,1033.40
2023-01-12T07:56:31.708Z,1033.35
2023-01-12T07:57:32.379Z,1033.34
2023-01-12T07:58:32.967Z,1033.33
2023-01-12T07:59:33.676Z,1033.24
2023-01-12T08:00:34.243Z,1033.20
2023-01-12T08:01:34.928Z,1033.14
2023-01-12T08:02:35.550Z,1033.11
2023-01-12T08:03:36.154Z,1033.11
2023-01-12T08:04:36.753Z,1033.10
2023-01-12T08:05:37.380Z,1033.24
2023-01-12T08:06:37.989Z,1033.06
2023-01-12T08:07:38.580Z,1033.06
2023-01-12T08:08:39.179Z,1033.05
2023-01-12T08:09:39.780Z,1033.10
2023-01-12T08:10:40.372Z,1033.16
2023-01-12T08:11:40.978Z,1033.04
2023-01-12T08:12:41.567Z,1033.10
2023-01-12T08:13:42.168Z,1033.03
2023-01-12T08:14:42.839Z,1033.11
2023-01-12T08:15:43.439Z,1033.17
2023-01-12T08:16:44.019Z,1033.25
2023-01-12T08:17:44.630Z,1033.25
2023-01-12T08:18:45.236Z,1033.23
2023-01-12T08:19:45.871Z,1033.25
2023-01-12T08:20:46.465Z,1033.24
2023-01-12T08:21:47.074Z,1033.33
2023-01-12T08:22:47.662Z,1033.34
2023-01-12T08:23:48.261Z,1033.44
2023-01-12T08:24:48.857Z,1033.45
2023-01-12T08:25:49.459Z,1033.47
2023-01-12T08:26:50.056Z,1033.55
2023-01-12T08:27:50.651Z,1033.53
2023-01-12T08:28:51.245Z,1033.56
2023-01-12T08:29:51.854Z,1033.55
2023-01-12T08:30:52.519Z,1033.61
2023-01-12T08:31:53.119Z,1033.53
2023-01-12T08:32:53.710Z,1033.50
2023-01-12T08:33:54.314Z,1033.41
2023-01-12T08:34:54.908Z,1033.37
2023-01-12T08:35:55.511Z,1033.49
2023-01-12T08:36:56.108Z,1033.51
2023-01-12T08:37:56.708Z,1033.45
2023-01-12T08:38:57.304Z,1033.50
2023-01-12T08:39:57.917Z,1033.40
2023-01-12T08:40:58.500Z,1033.46
2023-01-12T08:41:59.144Z,1033.44
2023-01-12T08:42:59.741Z,1033.41
2023-01-12T08:44:00.376Z,1033.46
2023-01-12T08:45:00.961Z,1033.55
2023-01-12T08:46:01.730Z,1033.54
2023-01-12T08:47:02.384Z,1033.57
2023-01-12T08:48:02.987Z,1033.51
2023-01-12T08:49:03.581Z,1033.57
2023-01-12T08:50:04.227Z,1033.62
2023-01-12T08:51:04.883Z,1033.60
2023-01-12T08:52:05.649Z,1033.53
2023-01-12T08:53:06.421Z,1033.42
2023-01-12T08:54:07.882Z,1033.39
2023-01-12T08:55:08.538Z,1033.51
2023-01-12T08:56:09.333Z,1033.41
2023-01-12T08:57:09.936Z,1033.39
2023-01-12T08:58:10.533Z,1033.46
2023-01-12T08:59:11.128Z,1033.47
2023-01-12T09:00:11.748Z,1033.44
2023-01-12T09:01:12.540Z,1033.46
2023-01-12T09:02:13.277Z,1033.49
2023-01-12T09:03:13.937Z,1033.55
2023-01-12T09:04:14.544Z,1033.59
2023-01-12T09:05:15.133Z,1033.61
2023-01-12T09:06:15.736Z,1033.60
2023-01-12T09:07:16.329Z,1033.61
2023-01-12T09:08:16.938Z,1033.60
2023-01-12T09:09:17.524Z,1033.60
2023-01-12T09:10:18.133Z,1033.57
2023-01-12T09:11:18.718Z,1033.59
2023-01-12T09:12:19.325Z,1033.61
2023-01-12T09:13:19.921Z,1033.65
2023-01-12T09:14:21.379Z,1033.70
2023-01-12T09:15:21.971Z,1033.76
2023-01-12T09:16:22.601Z,1033.75
2023-01-12T09:17:23.231Z,1033.87
2023-01-12T09:18:23.830Z,1033.89
2023-01-12T09:19:24.450Z,1033.77
2023-01-12T09:20:25.053Z,1033.91
2023-01-12T09:21:25.646Z,1033.91
2023-01-12T09:22:26.266Z,1033.79
2023-01-12T09:23:26.881Z,1033.90
2023-01-12T09:24:27.498Z,1033.79
2023-01-12T09:25:28.093Z,1033.84
2023-01-12T09:26:28.687Z,1033.75
2023-01-12T09:27:29.290Z,1033.79
2023-01-12T09:28:29.888Z,1033.79
2023-01-12T09:29:30.483Z,1033.68
2023-01-12T09:30:31.190Z,1033.74
2023-01-12T09:31:31.764Z,1033.72
2023-01-12T09:32:36.696Z,1033.68
2023-01-12T09:33:33.958Z,1033.66
2023-01-12T09:34:34.597Z,1033.70
2023-01-12T09:35:35.227Z,1033.68
2023-01-12T09:36:35.828Z,1033.74
2023-01-12T09:37:36.419Z,1033.79
2023-01-12T09:38:37.025Z,1033.83
2023-01-12T09:39:37.615Z,1033.78
2023-01-12T09:40:38.284Z,1033.81
2023-01-12T09:41:38.950Z,1033.75
2023-01-12T09:42:39.616Z,1033.86
2023-01-12T09:43:40.205Z,1033.76
2023-01-12T09:44:40.807Z,1033.71
2023-01-12T09:45:41.482Z,1033.69
2023-01-12T09:46:42.140Z,1033.66
2023-01-12T09:47:42.782Z,1033.66
2023-01-12T09:48:43.384Z,1033.63
2023-01-12T09:49:43.975Z,1033.57
2023-01-12T09:50:44.577Z,1033.56
2023-01-12T09:51:45.176Z,1033.51
2023-01-12T09:52:45.777Z,1033.53
2023-01-12T09:53:47.501Z,1033.55
2023-01-12T09:54:48.014Z,1033.70
2023-01-12T09:55:48.658Z,1033.74
2023-01-12T09:56:49.260Z,1033.74
2023-01-12T09:57:49.871Z,1033.77
2023-01-12T09:58:50.455Z,1033.72
2023-01-12T09:59:51.169Z,1033.81
2023-01-12T10:00:52.077Z,1033.77
2023-01-12T10:01:52.840Z,1033.74
2023-01-12T10:02:53.512Z,1033.81
2023-01-12T10:03:54.111Z,1033.77
2023-01-12T10:04:54.714Z,1033.79
2023-01-12T10:05:55.309Z,1033.75
2023-01-12T10:06:55.911Z,1033.79
2023-01-12T10:07:56.516Z,1033.88
2023-01-12T10:08:57.131Z,1033.90
2023-01-12T10:09:57.725Z,1033.90
2023-01-12T10:10:58.326Z,1033.95
2023-01-12T10:11:58.923Z,1034.07
2023-01-12T10:13:00.071Z,1033.96
2023-01-12T10:14:00.727Z,1034.02
2023-01-12T10:15:01.316Z,1033.96
2023-01-12T10:16:02.001Z,1034.03
2023-01-12T10:17:02.600Z,1034.01
2023-01-12T10:18:03.285Z,1034.00
2023-01-12T10:19:03.888Z,1033.97
2023-01-12T10:20:04.546Z,1034.06
2023-01-12T10:21:05.139Z,1034.00
2023-01-12T10:22:07.214Z,1033.93
2023-01-12T10:23:06.397Z,1033.93
2023-01-12T10:24:06.994Z,1033.93
2023-01-12T10:25:07.597Z,1033.95
2023-01-12T10:26:08.267Z,1033.89
2023-01-12T10:27:08.867Z,1033.96
2023-01-12T10:28:09.459Z,1033.98
2023-01-12T10:29:10.073Z,1034.00
2023-01-12T10:30:10.661Z,1033.93
2023-01-12T10:31:11.374Z,1034.07
2023-01-12T10:32:11.923Z,1034.01
2023-01-12T10:33:13.375Z,1033.98
2023-01-12T10:34:13.980Z,1034.02
2023-01-12T10:35:14.576Z,1034.05
2023-01-12T10:36:15.241Z,1034.00
2023-01-12T10:37:15.847Z,1034.06
2023-01-12T10:38:16.439Z,1034.02
2023-01-12T10:39:17.044Z,1034.01
2023-01-12T10:40:17.706Z,1034.07
2023-01-12T10:41:18.364Z,1034.06
2023-01-12T10:42:18.959Z,1034.05
2023-01-12T10:43:20.501Z,1034.13
2023-01-12T10:44:21.147Z,1034.14
2023-01-12T10:45:21.756Z,1034.13
2023-01-12T10:46:22.408Z,1034.19
2023-01-12T10:47:23.012Z,1034.19
2023-01-12T10:48:23.604Z,1034.17
2023-01-12T10:49:24.209Z,1034.16
2023-01-12T10:50:24.827Z,1034.15
2023-01-12T10:51:25.417Z,1034.14
2023-01-12T10:52:26.055Z,1034.22
2023-01-12T10:53:27.529Z,1034.21
2023-01-12T10:54:28.112Z,1034.17
2023-01-12T10:55:28.714Z,1034.09
2023-01-12T10:56:29.307Z,1034.19
2023-01-12T10:57:29.958Z,1034.18
2023-01-12T10:58:30.554Z,1034.19
2023-01-12T10:59:31.159Z,1034.19
2023-01-12T11:00:31.799Z,1034.19
2023-01-12T11:01:32.476Z,1034.17
2023-01-12T11:02:33.148Z,1034.24
2023-01-12T11:03:33.752Z,1034.17
2023-01-12T11:04:34.462Z,1034.09
2023-01-12T11:05:35.063Z,1034.14
2023-01-12T11:06:35.656Z,1034.12
2023-01-12T11:07:36.304Z,1034.12
2023-01-12T11:08:36.900Z,1034.11
2023-01-12T11:09:37.501Z,1034.06
2023-01-12T11:10:38.095Z,1034.13
2023-01-12T11:11:38.699Z,1034.19
2023-01-12T11:12:39.290Z,1034.14
2023-01-12T11:13:40.702Z,1034.13
2023-01-12T11:14:41.283Z,1034.16
2023-01-12T11:15:41.884Z,1034.11
2023-01-12T11:16:42.501Z,1034.16
2023-01-12T11:17:43.084Z,1034.15
2023-01-12T11:18:43.679Z,1034.16
2023-01-12T11:19:44.278Z,1034.14
2023-01-12T11:20:44.876Z,1034.19
2023-01-12T11:21:45.475Z,1034.16
2023-01-12T11:22:46.067Z,1034.01
2023-01-12T11:23:46.673Z,1034.05
2023-01-12T11:24:47.266Z,1034.06
2023-01-12T11:25:47.868Z,1034.08
2023-01-12T11:26:48.526Z,1034.06
2023-01-12T11:27:49.269Z,1034.02
2023-01-12T11:28:49.885Z,1034.09
2023-01-12T11:29:50.537Z,1034.00
2023-01-12T11:30:51.164Z,1034.00
2023-01-12T11:31:51.799Z,1034.09
2023-01-12T11:32:52.462Z,1034.02
2023-01-12T11:33:53.059Z,1034.07
2023-01-12T11:34:53.660Z,1034.05
2023-01-12T11:35:54.256Z,1033.98
2023-01-12T11:36:54.921Z,1033.97
2023-01-12T11:37:55.517Z,1034.00
2023-01-12T11:38:56.121Z,1033.89
2023-01-12T11:39:56.709Z,1033.95
2023-01-12T11:40:57.309Z,1033.79
2023-01-12T11:41:57.902Z,1033.86
2023-01-12T11:42:58.506Z,1033.84
2023-01-12T11:43:59.120Z,1033.90
2023-01-12T11:44:59.702Z,1033.84
2023-01-12T11:46:00.334Z,1033.86
2023-01-12T11:47:00.946Z,1033.83
2023-01-12T11:48:01.534Z,1033.82
2023-01-12T11:49:02.140Z,1033.78
2023-01-12T11:50:02.720Z,1033.73
2023-01-12T11:51:03.325Z,1033.78
2023-01-12T11:52:03.936Z,1033.72
2023-01-12T11:53:04.518Z,1033.72
2023-01-12T11:54:05.163Z,1033.60
2023-01-12T11:55:05.763Z,1033.64
2023-01-12T11:56:06.438Z,1033.64
2023-01-12T11:57:07.031Z,1033.63
2023-01-12T11:58:07.621Z,1033.58
2023-01-12T11:59:08.225Z,1033.54
2023-01-12T12:00:08.819Z,1033.55
2023-01-12T12:01:10.364Z,1033.56
2023-01-12T12:02:11.044Z,1033.53
2023-01-12T12:03:11.644Z,1033.51
2023-01-12T12:04:12.243Z,1033.45
2023-01-12T12:05:12.847Z,1033.53
2023-01-12T12:06:13.473Z,1033.51
2023-01-12T12:07:14.092Z,1033.47
2023-01-12T12:08:14.683Z,1033.51
2023-01-12T12:09:15.338Z,1033.57
2023-01-12T12:10:16.733Z,1033.48
2023-01-12T12:11:17.333Z,1033.41
2023-01-12T12:12:17.934Z,1033.41
2023-01-12T12:13:18.683Z,1033.42
2023-01-12T12:14:19.286Z,1033.41